Bellaire, MI

8:13 AM EDT on May 24, 2015 (GMT -0400)
Bellaire | | Change Station
CLOSE
Current Station
Personal Weather Station
Location: Bellaire, MI
Elevation: 748 ft
Nearby Weather Stations

Elev 748 ft 44.91 °N, 85.24 °W | Updated 3 minutes ago

Mostly Cloudy
Mostly Cloudy
54.0 °F
Feels Like 54.0 °F
N
0.0
Wind Variable Wind from East
Gusts 2.0 mph

Today
High -- | Low -- °F
--% Chance of Precip.
Yesterday
High -- | Low -- °F
Precip. -- in
6:03 AM 9:12 PM
Waxing Crescent, 38% visible
Pressure 30.20 in
Visibility 10.0 miles
Clouds Mostly Cloudy 10000 ft
Dew Point 45 °F
Humidity 71%
Rainfall 0.00 in
Snow Depth Not available.
UV 1 out of 12
Pollen 9.50 out of 12
Air Quality Not available.
Flu Activity Sporadic
METAR KACB 241154Z AUTO 00000KT 10SM BKN100 12/08 A3020 RMK AO2 T01200079 10120 20051

More Conditions Fewer Conditions

Pressure 30.20 in
Visibility 10.0 miles
Clouds Mostly Cloudy 10000 ft
Dew Point 45 °F
Humidity 71%
Rainfall 0.00 in
Snow Depth Not available.
UV 1 out of 12
Pollen 9.50 out of 12
Air Quality Not available.
Flu Activity Sporadic
METAR KACB 241154Z AUTO 00000KT 10SM BKN100 12/08 A3020 RMK AO2 T01200079 10120 20051

More Conditions Fewer Conditions

Nowcast | as of 8:00 am EDT on May 24, 2015

At 9 am...partly cloudy. Temperature 61. South winds 6 mph. At 11 am...mostly cloudy. Temperature 67. Southwest winds 8 mph. At 1 PM...mostly cloudy. Temperature 74. Southwest winds 10 mph. At 3 PM...cloudy. Temperature 75. Southwest winds 10 mph.

×

10-Day Weather Forecast

Almanac

Astronomy

May. 24, 2015 Rise Set
Actual Time
Civil Twilight
Nautical Twilight
Astronomical Twilight
Moon
Length of Visible Light
Length of Day
Tomorrow will be .
, % of the Moon is Illuminated

Today's Extremes

State Highs State Lows

Community

WunderPhotos

Upload Photos

1,823,721 photos uploaded!

WunderBlogs® & News

Nearby

Air Quality

  Air Quality AQ Index Pollutant
Not available.

Snow Depth

Station Depth Elevation

Earthquake Activity

City Distance Mag. Time & Date
Minimum magnitude displayed is 2.5.

Coastal Water Temperatures

Place Temperature

Stations

Nearby Weather Stations

Station Location Temp. Windchill Dew Point Humidity Wind Precip. Elev Updated Type